sensor_id;sensor_type;location;lat;lon;timestamp;P1;durP1;ratioP1;P2;durP2;ratioP2
8413;SDS011;4244;48.684;9.028;2022-12-26T00:01:17;5.77;;;3.30;;
8413;SDS011;4244;48.684;9.028;2022-12-26T00:03:45;3.57;;;3.23;;
8413;SDS011;4244;48.684;9.028;2022-12-26T00:06:12;3.27;;;2.97;;
8413;SDS011;4244;48.684;9.028;2022-12-26T00:08:42;4.03;;;3.47;;
8413;SDS011;4244;48.684;9.028;2022-12-26T00:11:08;3.30;;;3.00;;
8413;SDS011;4244;48.684;9.028;2022-12-26T00:13:34;4.33;;;3.93;;
8413;SDS011;4244;48.684;9.028;2022-12-26T00:16:04;3.90;;;3.43;;
8413;SDS011;4244;48.684;9.028;2022-12-26T00:18:32;3.53;;;2.80;;
8413;SDS011;4244;48.684;9.028;2022-12-26T00:20:57;4.47;;;3.40;;
8413;SDS011;4244;48.684;9.028;2022-12-26T00:23:24;3.20;;;2.90;;
8413;SDS011;4244;48.684;9.028;2022-12-26T00:25:50;3.67;;;3.27;;
8413;SDS011;4244;48.684;9.028;2022-12-26T00:28:15;4.27;;;3.00;;
8413;SDS011;4244;48.684;9.028;2022-12-26T00:30:41;3.30;;;3.00;;
8413;SDS011;4244;48.684;9.028;2022-12-26T00:33:06;3.20;;;2.90;;
8413;SDS011;4244;48.684;9.028;2022-12-26T00:35:32;3.40;;;2.80;;
8413;SDS011;4244;48.684;9.028;2022-12-26T00:37:57;4.50;;;3.50;;
8413;SDS011;4244;48.684;9.028;2022-12-26T00:40:23;2.93;;;2.70;;
8413;SDS011;4244;48.684;9.028;2022-12-26T00:42:49;3.70;;;3.30;;
8413;SDS011;4244;48.684;9.028;2022-12-26T00:45:14;3.80;;;3.40;;
8413;SDS011;4244;48.684;9.028;2022-12-26T00:47:40;4.13;;;3.17;;
8413;SDS011;4244;48.684;9.028;2022-12-26T00:50:05;3.60;;;3.30;;
8413;SDS011;4244;48.684;9.028;2022-12-26T00:52:31;4.20;;;3.40;;
8413;SDS011;4244;48.684;9.028;2022-12-26T00:54:57;3.80;;;3.40;;
8413;SDS011;4244;48.684;9.028;2022-12-26T00:57:23;3.63;;;3.30;;
8413;SDS011;4244;48.684;9.028;2022-12-26T00:59:48;3.90;;;3.53;;
8413;SDS011;4244;48.684;9.028;2022-12-26T01:02:14;3.23;;;2.93;;
8413;SDS011;4244;48.684;9.028;2022-12-26T01:04:58;4.07;;;3.50;;
8413;SDS011;4244;48.684;9.028;2022-12-26T01:07:23;3.87;;;3.40;;
8413;SDS011;4244;48.684;9.028;2022-12-26T01:09:49;3.70;;;3.30;;
8413;SDS011;4244;48.684;9.028;2022-12-26T01:12:14;4.80;;;3.40;;
8413;SDS011;4244;48.684;9.028;2022-12-26T01:14:40;3.80;;;3.40;;
8413;SDS011;4244;48.684;9.028;2022-12-26T01:17:06;3.40;;;3.10;;
8413;SDS011;4244;48.684;9.028;2022-12-26T01:19:31;3.70;;;3.40;;
8413;SDS011;4244;48.684;9.028;2022-12-26T01:21:57;3.40;;;3.10;;
8413;SDS011;4244;48.684;9.028;2022-12-26T01:24:22;4.00;;;3.10;;
8413;SDS011;4244;48.684;9.028;2022-12-26T01:26:48;3.70;;;3.40;;
8413;SDS011;4244;48.684;9.028;2022-12-26T01:29:14;4.13;;;2.80;;
8413;SDS011;4244;48.684;9.028;2022-12-26T01:31:39;4.23;;;3.53;;
8413;SDS011;4244;48.684;9.028;2022-12-26T01:34:05;3.60;;;3.30;;
8413;SDS011;4244;48.684;9.028;2022-12-26T01:36:30;3.80;;;3.50;;
8413;SDS011;4244;48.684;9.028;2022-12-26T01:38:56;3.23;;;2.93;;
8413;SDS011;4244;48.684;9.028;2022-12-26T01:41:23;3.50;;;3.20;;
8413;SDS011;4244;48.684;9.028;2022-12-26T01:46:15;3.83;;;3.50;;
8413;SDS011;4244;48.684;9.028;2022-12-26T01:48:41;3.13;;;2.83;;
8413;SDS011;4244;48.684;9.028;2022-12-26T01:51:06;3.60;;;3.30;;
8413;SDS011;4244;48.684;9.028;2022-12-26T01:53:39;3.77;;;3.20;;
8413;SDS011;4244;48.684;9.028;2022-12-26T01:56:09;4.30;;;3.00;;
8413;SDS011;4244;48.684;9.028;2022-12-26T01:58:37;3.53;;;3.17;;
8413;SDS011;4244;48.684;9.028;2022-12-26T02:01:06;3.70;;;3.40;;
8413;SDS011;4244;48.684;9.028;2022-12-26T02:03:35;3.70;;;3.40;;
8413;SDS011;4244;48.684;9.028;2022-12-26T02:06:20;4.33;;;3.93;;
8413;SDS011;4244;48.684;9.028;2022-12-26T02:08:46;3.17;;;2.87;;
8413;SDS011;4244;48.684;9.028;2022-12-26T02:11:16;3.37;;;3.07;;
8413;SDS011;4244;48.684;9.028;2022-12-26T02:13:42;3.10;;;2.80;;
8413;SDS011;4244;48.684;9.028;2022-12-26T02:16:09;3.97;;;3.07;;
8413;SDS011;4244;48.684;9.028;2022-12-26T02:18:38;2.70;;;2.50;;
8413;SDS011;4244;48.684;9.028;2022-12-26T02:26:57;3.53;;;3.07;;
8413;SDS011;4244;48.684;9.028;2022-12-26T02:32:28;3.50;;;3.20;;
8413;SDS011;4244;48.684;9.028;2022-12-26T02:35:09;3.13;;;2.80;;
8413;SDS011;4244;48.684;9.028;2022-12-26T02:49:31;3.90;;;3.37;;
8413;SDS011;4244;48.684;9.028;2022-12-26T02:52:28;3.40;;;3.10;;
8413;SDS011;4244;48.684;9.028;2022-12-26T02:55:19;3.10;;;2.80;;
8413;SDS011;4244;48.684;9.028;2022-12-26T02:58:12;3.50;;;3.07;;
8413;SDS011;4244;48.684;9.028;2022-12-26T03:01:04;3.83;;;3.47;;
8413;SDS011;4244;48.684;9.028;2022-12-26T03:03:53;2.93;;;2.63;;
8413;SDS011;4244;48.684;9.028;2022-12-26T03:06:38;2.97;;;2.67;;
8413;SDS011;4244;48.684;9.028;2022-12-26T03:09:23;3.33;;;3.03;;
8413;SDS011;4244;48.684;9.028;2022-12-26T03:12:23;3.67;;;3.30;;
8413;SDS011;4244;48.684;9.028;2022-12-26T03:15:12;4.30;;;3.57;;
8413;SDS011;4244;48.684;9.028;2022-12-26T03:17:45;4.03;;;2.90;;
8413;SDS011;4244;48.684;9.028;2022-12-26T03:20:19;3.60;;;3.30;;
8413;SDS011;4244;48.684;9.028;2022-12-26T03:22:51;3.23;;;2.63;;
8413;SDS011;4244;48.684;9.028;2022-12-26T03:25:22;3.50;;;2.70;;
8413;SDS011;4244;48.684;9.028;2022-12-26T03:28:10;3.60;;;3.00;;
8413;SDS011;4244;48.684;9.028;2022-12-26T03:30:35;3.10;;;2.80;;
8413;SDS011;4244;48.684;9.028;2022-12-26T03:33:14;3.97;;;2.90;;
8413;SDS011;4244;48.684;9.028;2022-12-26T03:35:58;3.03;;;2.73;;
8413;SDS011;4244;48.684;9.028;2022-12-26T03:38:27;4.70;;;3.07;;
8413;SDS011;4244;48.684;9.028;2022-12-26T03:41:05;3.83;;;2.70;;
8413;SDS011;4244;48.684;9.028;2022-12-26T03:43:58;3.10;;;2.90;;
8413;SDS011;4244;48.684;9.028;2022-12-26T03:49:45;3.43;;;3.00;;
8413;SDS011;4244;48.684;9.028;2022-12-26T04:01:18;3.60;;;3.30;;
8413;SDS011;4244;48.684;9.028;2022-12-26T04:04:05;4.50;;;4.10;;
8413;SDS011;4244;48.684;9.028;2022-12-26T04:06:53;4.40;;;3.20;;
8413;SDS011;4244;48.684;9.028;2022-12-26T04:09:42;3.73;;;3.30;;
8413;SDS011;4244;48.684;9.028;2022-12-26T04:12:28;3.27;;;2.97;;
8413;SDS011;4244;48.684;9.028;2022-12-26T04:15:17;3.13;;;2.80;;
8413;SDS011;4244;48.684;9.028;2022-12-26T04:18:12;3.20;;;2.87;;
8413;SDS011;4244;48.684;9.028;2022-12-26T04:21:08;3.63;;;3.23;;
8413;SDS011;4244;48.684;9.028;2022-12-26T04:24:01;3.30;;;3.00;;
8413;SDS011;4244;48.684;9.028;2022-12-26T04:26:50;3.23;;;2.93;;
8413;SDS011;4244;48.684;9.028;2022-12-26T04:29:37;3.50;;;3.10;;
8413;SDS011;4244;48.684;9.028;2022-12-26T04:32:33;3.47;;;3.17;;
8413;SDS011;4244;48.684;9.028;2022-12-26T04:35:23;3.00;;;2.80;;
8413;SDS011;4244;48.684;9.028;2022-12-26T04:38:23;3.47;;;2.83;;
8413;SDS011;4244;48.684;9.028;2022-12-26T04:41:11;3.37;;;3.03;;
8413;SDS011;4244;48.684;9.028;2022-12-26T04:43:57;4.23;;;3.33;;
8413;SDS011;4244;48.684;9.028;2022-12-26T04:46:34;3.40;;;2.63;;
8413;SDS011;4244;48.684;9.028;2022-12-26T04:49:03;3.40;;;3.10;;
8413;SDS011;4244;48.684;9.028;2022-12-26T04:51:48;3.77;;;3.10;;
8413;SDS011;4244;48.684;9.028;2022-12-26T04:54:14;4.17;;;3.77;;
8413;SDS011;4244;48.684;9.028;2022-12-26T04:56:40;3.17;;;2.73;;
8413;SDS011;4244;48.684;9.028;2022-12-26T04:59:05;3.47;;;2.80;;
8413;SDS011;4244;48.684;9.028;2022-12-26T05:01:31;3.00;;;2.70;;
8413;SDS011;4244;48.684;9.028;2022-12-26T05:04:16;5.63;;;3.60;;
8413;SDS011;4244;48.684;9.028;2022-12-26T05:07:01;3.33;;;3.03;;
8413;SDS011;4244;48.684;9.028;2022-12-26T05:09:51;3.77;;;3.27;;
8413;SDS011;4244;48.684;9.028;2022-12-26T05:12:18;4.17;;;3.20;;
8413;SDS011;4244;48.684;9.028;2022-12-26T05:14:44;3.40;;;2.80;;
8413;SDS011;4244;48.684;9.028;2022-12-26T05:17:10;4.10;;;3.40;;
8413;SDS011;4244;48.684;9.028;2022-12-26T05:19:55;4.13;;;3.03;;
8413;SDS011;4244;48.684;9.028;2022-12-26T05:22:40;3.20;;;2.60;;
8413;SDS011;4244;48.684;9.028;2022-12-26T05:25:36;3.57;;;3.13;;
8413;SDS011;4244;48.684;9.028;2022-12-26T05:28:22;3.77;;;3.03;;
8413;SDS011;4244;48.684;9.028;2022-12-26T05:31:06;4.13;;;3.27;;
8413;SDS011;4244;48.684;9.028;2022-12-26T05:33:33;3.00;;;2.70;;
8413;SDS011;4244;48.684;9.028;2022-12-26T05:36:18;3.00;;;2.70;;
8413;SDS011;4244;48.684;9.028;2022-12-26T05:38:44;3.27;;;2.73;;
8413;SDS011;4244;48.684;9.028;2022-12-26T05:41:10;3.50;;;3.20;;
8413;SDS011;4244;48.684;9.028;2022-12-26T05:43:35;3.90;;;3.60;;
8413;SDS011;4244;48.684;9.028;2022-12-26T05:46:01;3.40;;;3.10;;
8413;SDS011;4244;48.684;9.028;2022-12-26T05:48:27;3.30;;;2.93;;
8413;SDS011;4244;48.684;9.028;2022-12-26T05:50:56;3.10;;;2.80;;
8413;SDS011;4244;48.684;9.028;2022-12-26T05:53:23;3.37;;;2.80;;
8413;SDS011;4244;48.684;9.028;2022-12-26T05:55:48;3.27;;;2.80;;
8413;SDS011;4244;48.684;9.028;2022-12-26T05:58:14;4.70;;;4.30;;
8413;SDS011;4244;48.684;9.028;2022-12-26T06:00:39;3.80;;;3.03;;
8413;SDS011;4244;48.684;9.028;2022-12-26T06:03:05;3.40;;;2.90;;
8413;SDS011;4244;48.684;9.028;2022-12-26T06:05:37;5.43;;;3.43;;
8413;SDS011;4244;48.684;9.028;2022-12-26T06:08:03;3.40;;;2.93;;
8413;SDS011;4244;48.684;9.028;2022-12-26T06:10:36;2.97;;;2.70;;
8413;SDS011;4244;48.684;9.028;2022-12-26T06:13:02;3.70;;;3.30;;
8413;SDS011;4244;48.684;9.028;2022-12-26T06:15:27;3.77;;;3.33;;
8413;SDS011;4244;48.684;9.028;2022-12-26T06:17:53;3.00;;;2.70;;
8413;SDS011;4244;48.684;9.028;2022-12-26T06:20:20;2.97;;;2.50;;
8413;SDS011;4244;48.684;9.028;2022-12-26T06:22:46;3.63;;;3.10;;
8413;SDS011;4244;48.684;9.028;2022-12-26T06:25:11;2.70;;;2.47;;
8413;SDS011;4244;48.684;9.028;2022-12-26T06:27:37;3.80;;;2.87;;
8413;SDS011;4244;48.684;9.028;2022-12-26T06:30:02;3.10;;;2.80;;
8413;SDS011;4244;48.684;9.028;2022-12-26T06:32:28;3.17;;;2.70;;
8413;SDS011;4244;48.684;9.028;2022-12-26T06:34:54;4.23;;;2.63;;
8413;SDS011;4244;48.684;9.028;2022-12-26T06:37:20;3.50;;;3.20;;
8413;SDS011;4244;48.684;9.028;2022-12-26T06:39:45;3.50;;;3.13;;
8413;SDS011;4244;48.684;9.028;2022-12-26T06:42:11;2.80;;;2.50;;
8413;SDS011;4244;48.684;9.028;2022-12-26T06:44:36;3.00;;;2.70;;
8413;SDS011;4244;48.684;9.028;2022-12-26T06:47:02;3.70;;;3.23;;
8413;SDS011;4244;48.684;9.028;2022-12-26T06:49:28;3.70;;;3.40;;
8413;SDS011;4244;48.684;9.028;2022-12-26T06:51:53;3.53;;;3.20;;
8413;SDS011;4244;48.684;9.028;2022-12-26T06:54:19;3.33;;;2.60;;
8413;SDS011;4244;48.684;9.028;2022-12-26T06:56:44;3.40;;;3.10;;
8413;SDS011;4244;48.684;9.028;2022-12-26T06:59:10;3.53;;;3.23;;
8413;SDS011;4244;48.684;9.028;2022-12-26T07:01:36;2.70;;;2.50;;
8413;SDS011;4244;48.684;9.028;2022-12-26T07:04:01;3.17;;;2.87;;
8413;SDS011;4244;48.684;9.028;2022-12-26T07:06:29;3.10;;;2.80;;
8413;SDS011;4244;48.684;9.028;2022-12-26T07:08:57;6.20;;;3.17;;
8413;SDS011;4244;48.684;9.028;2022-12-26T07:11:26;3.40;;;3.10;;
8413;SDS011;4244;48.684;9.028;2022-12-26T07:13:53;3.70;;;2.60;;
8413;SDS011;4244;48.684;9.028;2022-12-26T07:16:19;4.30;;;3.10;;
8413;SDS011;4244;48.684;9.028;2022-12-26T07:18:45;3.83;;;2.90;;
8413;SDS011;4244;48.684;9.028;2022-12-26T07:21:12;3.70;;;3.40;;
8413;SDS011;4244;48.684;9.028;2022-12-26T07:23:40;3.80;;;3.30;;
8413;SDS011;4244;48.684;9.028;2022-12-26T07:26:06;5.90;;;3.63;;
8413;SDS011;4244;48.684;9.028;2022-12-26T07:28:32;3.10;;;2.80;;
8413;SDS011;4244;48.684;9.028;2022-12-26T07:30:58;3.23;;;2.93;;
8413;SDS011;4244;48.684;9.028;2022-12-26T07:33:25;4.07;;;3.47;;
8413;SDS011;4244;48.684;9.028;2022-12-26T07:35:52;3.33;;;2.90;;
8413;SDS011;4244;48.684;9.028;2022-12-26T07:38:18;2.77;;;2.53;;
8413;SDS011;4244;48.684;9.028;2022-12-26T07:40:43;3.47;;;3.17;;
8413;SDS011;4244;48.684;9.028;2022-12-26T07:43:09;5.77;;;3.63;;
8413;SDS011;4244;48.684;9.028;2022-12-26T07:45:35;3.83;;;2.77;;
8413;SDS011;4244;48.684;9.028;2022-12-26T07:48:00;3.47;;;2.93;;
8413;SDS011;4244;48.684;9.028;2022-12-26T07:50:26;3.70;;;3.17;;
8413;SDS011;4244;48.684;9.028;2022-12-26T07:52:52;3.40;;;2.93;;
8413;SDS011;4244;48.684;9.028;2022-12-26T07:55:18;3.53;;;2.97;;
8413;SDS011;4244;48.684;9.028;2022-12-26T07:57:48;3.03;;;2.80;;
8413;SDS011;4244;48.684;9.028;2022-12-26T08:00:14;3.93;;;3.23;;
8413;SDS011;4244;48.684;9.028;2022-12-26T08:02:40;3.80;;;3.10;;
8413;SDS011;4244;48.684;9.028;2022-12-26T08:05:06;4.40;;;2.80;;
8413;SDS011;4244;48.684;9.028;2022-12-26T08:07:32;4.43;;;2.93;;
8413;SDS011;4244;48.684;9.028;2022-12-26T08:09:57;3.77;;;3.07;;
8413;SDS011;4244;48.684;9.028;2022-12-26T08:12:23;3.50;;;3.17;;
8413;SDS011;4244;48.684;9.028;2022-12-26T08:14:50;3.30;;;3.00;;
8413;SDS011;4244;48.684;9.028;2022-12-26T08:17:16;3.03;;;2.73;;
8413;SDS011;4244;48.684;9.028;2022-12-26T08:19:41;4.33;;;3.20;;
8413;SDS011;4244;48.684;9.028;2022-12-26T08:22:07;4.13;;;3.47;;
8413;SDS011;4244;48.684;9.028;2022-12-26T08:24:33;3.60;;;3.30;;
8413;SDS011;4244;48.684;9.028;2022-12-26T08:26:58;4.33;;;2.93;;
8413;SDS011;4244;48.684;9.028;2022-12-26T08:29:24;3.50;;;2.77;;
8413;SDS011;4244;48.684;9.028;2022-12-26T08:31:49;4.10;;;3.53;;
8413;SDS011;4244;48.684;9.028;2022-12-26T08:34:15;3.97;;;3.57;;
8413;SDS011;4244;48.684;9.028;2022-12-26T08:36:40;3.30;;;3.00;;
8413;SDS011;4244;48.684;9.028;2022-12-26T08:39:06;3.10;;;2.80;;
8413;SDS011;4244;48.684;9.028;2022-12-26T08:41:32;4.33;;;3.90;;
8413;SDS011;4244;48.684;9.028;2022-12-26T08:43:57;4.10;;;3.70;;
8413;SDS011;4244;48.684;9.028;2022-12-26T08:46:23;4.30;;;2.83;;
8413;SDS011;4244;48.684;9.028;2022-12-26T08:48:49;3.07;;;2.77;;
8413;SDS011;4244;48.684;9.028;2022-12-26T08:51:21;4.07;;;3.57;;
8413;SDS011;4244;48.684;9.028;2022-12-26T08:53:48;5.10;;;3.97;;
8413;SDS011;4244;48.684;9.028;2022-12-26T08:56:17;4.67;;;3.80;;
8413;SDS011;4244;48.684;9.028;2022-12-26T08:58:48;5.00;;;3.70;;
8413;SDS011;4244;48.684;9.028;2022-12-26T09:01:15;5.13;;;4.30;;
8413;SDS011;4244;48.684;9.028;2022-12-26T09:03:43;6.23;;;3.80;;
8413;SDS011;4244;48.684;9.028;2022-12-26T09:06:09;4.30;;;3.90;;
8413;SDS011;4244;48.684;9.028;2022-12-26T09:08:36;4.90;;;3.70;;
8413;SDS011;4244;48.684;9.028;2022-12-26T09:11:09;4.40;;;4.00;;
8413;SDS011;4244;48.684;9.028;2022-12-26T09:13:37;5.00;;;4.30;;
8413;SDS011;4244;48.684;9.028;2022-12-26T09:16:22;4.57;;;4.17;;
8413;SDS011;4244;48.684;9.028;2022-12-26T09:18:55;4.83;;;3.73;;
8413;SDS011;4244;48.684;9.028;2022-12-26T09:21:23;4.50;;;4.07;;
8413;SDS011;4244;48.684;9.028;2022-12-26T09:23:49;2.63;;;2.07;;
8413;SDS011;4244;48.684;9.028;2022-12-26T09:26:16;5.00;;;2.50;;
8413;SDS011;4244;48.684;9.028;2022-12-26T09:28:43;5.57;;;3.10;;
8413;SDS011;4244;48.684;9.028;2022-12-26T09:31:32;5.43;;;3.27;;
8413;SDS011;4244;48.684;9.028;2022-12-26T09:33:57;5.77;;;3.30;;
8413;SDS011;4244;48.684;9.028;2022-12-26T09:36:24;4.47;;;2.97;;
8413;SDS011;4244;48.684;9.028;2022-12-26T09:38:51;9.90;;;3.40;;
8413;SDS011;4244;48.684;9.028;2022-12-26T09:44:02;5.43;;;3.20;;
8413;SDS011;4244;48.684;9.028;2022-12-26T09:46:37;3.87;;;3.47;;
8413;SDS011;4244;48.684;9.028;2022-12-26T09:51:45;4.60;;;4.17;;
8413;SDS011;4244;48.684;9.028;2022-12-26T09:57:16;5.03;;;3.93;;
8413;SDS011;4244;48.684;9.028;2022-12-26T09:59:48;7.33;;;4.37;;
8413;SDS011;4244;48.684;9.028;2022-12-26T10:02:24;6.20;;;4.70;;
8413;SDS011;4244;48.684;9.028;2022-12-26T10:04:50;5.10;;;4.50;;
8413;SDS011;4244;48.684;9.028;2022-12-26T10:07:26;5.07;;;4.57;;
8413;SDS011;4244;48.684;9.028;2022-12-26T10:18:17;5.37;;;4.80;;
8413;SDS011;4244;48.684;9.028;2022-12-26T10:23:43;6.37;;;5.43;;
8413;SDS011;4244;48.684;9.028;2022-12-26T10:31:37;5.87;;;5.27;;
8413;SDS011;4244;48.684;9.028;2022-12-26T10:34:29;6.67;;;6.03;;
8413;SDS011;4244;48.684;9.028;2022-12-26T10:36:59;6.37;;;5.70;;
8413;SDS011;4244;48.684;9.028;2022-12-26T10:39:29;6.40;;;4.70;;
8413;SDS011;4244;48.684;9.028;2022-12-26T10:42:02;7.57;;;6.33;;
8413;SDS011;4244;48.684;9.028;2022-12-26T10:44:34;7.13;;;5.33;;
8413;SDS011;4244;48.684;9.028;2022-12-26T10:49:31;5.73;;;5.10;;
8413;SDS011;4244;48.684;9.028;2022-12-26T10:51:58;6.83;;;6.13;;
8413;SDS011;4244;48.684;9.028;2022-12-26T10:54:25;5.60;;;5.07;;
8413;SDS011;4244;48.684;9.028;2022-12-26T10:56:51;5.67;;;5.07;;
8413;SDS011;4244;48.684;9.028;2022-12-26T10:59:51;4.57;;;4.17;;
8413;SDS011;4244;48.684;9.028;2022-12-26T11:02:26;5.43;;;3.33;;
8413;SDS011;4244;48.684;9.028;2022-12-26T11:07:25;4.60;;;3.40;;
8413;SDS011;4244;48.684;9.028;2022-12-26T11:09:53;2.40;;;2.20;;
8413;SDS011;4244;48.684;9.028;2022-12-26T11:12:27;2.80;;;2.53;;
8413;SDS011;4244;48.684;9.028;2022-12-26T11:15:03;4.57;;;3.00;;
8413;SDS011;4244;48.684;9.028;2022-12-26T11:17:32;4.20;;;3.43;;
8413;SDS011;4244;48.684;9.028;2022-12-26T11:22:40;3.97;;;3.57;;
8413;SDS011;4244;48.684;9.028;2022-12-26T11:27:46;3.23;;;2.63;;
8413;SDS011;4244;48.684;9.028;2022-12-26T11:32:41;3.23;;;2.93;;
8413;SDS011;4244;48.684;9.028;2022-12-26T11:35:16;2.90;;;2.30;;
8413;SDS011;4244;48.684;9.028;2022-12-26T11:37:56;3.37;;;2.37;;
8413;SDS011;4244;48.684;9.028;2022-12-26T11:40:23;3.27;;;2.37;;
8413;SDS011;4244;48.684;9.028;2022-12-26T11:42:51;2.57;;;2.10;;
8413;SDS011;4244;48.684;9.028;2022-12-26T11:45:23;2.40;;;1.70;;
8413;SDS011;4244;48.684;9.028;2022-12-26T11:47:51;2.57;;;1.97;;
8413;SDS011;4244;48.684;9.028;2022-12-26T11:50:18;2.40;;;2.07;;
8413;SDS011;4244;48.684;9.028;2022-12-26T11:55:28;1.67;;;1.40;;
8413;SDS011;4244;48.684;9.028;2022-12-26T12:00:34;1.80;;;1.37;;
8413;SDS011;4244;48.684;9.028;2022-12-26T12:23:05;1.93;;;1.37;;
8413;SDS011;4244;48.684;9.028;2022-12-26T12:25:43;1.63;;;1.27;;
8413;SDS011;4244;48.684;9.028;2022-12-26T12:29:00;1.70;;;1.20;;
8413;SDS011;4244;48.684;9.028;2022-12-26T12:37:30;4.17;;;2.03;;
8413;SDS011;4244;48.684;9.028;2022-12-26T12:40:04;7.70;;;2.50;;
8413;SDS011;4244;48.684;9.028;2022-12-26T12:43:06;4.80;;;2.00;;
8413;SDS011;4244;48.684;9.028;2022-12-26T12:45:57;1.70;;;1.07;;
8413;SDS011;4244;48.684;9.028;2022-12-26T12:51:04;1.70;;;1.07;;
8413;SDS011;4244;48.684;9.028;2022-12-26T13:01:32;1.20;;;0.87;;
8413;SDS011;4244;48.684;9.028;2022-12-26T13:09:20;1.87;;;1.67;;
8413;SDS011;4244;48.684;9.028;2022-12-26T13:11:59;1.70;;;1.40;;
8413;SDS011;4244;48.684;9.028;2022-12-26T13:14:32;2.77;;;1.80;;
8413;SDS011;4244;48.684;9.028;2022-12-26T13:17:17;1.63;;;1.23;;
8413;SDS011;4244;48.684;9.028;2022-12-26T13:19:50;2.50;;;2.10;;
8413;SDS011;4244;48.684;9.028;2022-12-26T13:22:28;2.07;;;1.83;;
8413;SDS011;4244;48.684;9.028;2022-12-26T13:25:17;2.07;;;1.53;;
8413;SDS011;4244;48.684;9.028;2022-12-26T13:27:43;1.40;;;1.00;;
8413;SDS011;4244;48.684;9.028;2022-12-26T13:30:11;1.63;;;1.20;;
8413;SDS011;4244;48.684;9.028;2022-12-26T13:32:38;2.40;;;1.20;;
8413;SDS011;4244;48.684;9.028;2022-12-26T13:35:05;1.40;;;1.20;;
8413;SDS011;4244;48.684;9.028;2022-12-26T13:39:59;2.20;;;1.70;;
8413;SDS011;4244;48.684;9.028;2022-12-26T13:42:33;2.33;;;1.83;;
8413;SDS011;4244;48.684;9.028;2022-12-26T13:50:49;1.73;;;1.40;;
8413;SDS011;4244;48.684;9.028;2022-12-26T14:10:15;2.87;;;1.73;;
8413;SDS011;4244;48.684;9.028;2022-12-26T14:18:49;1.83;;;1.40;;
8413;SDS011;4244;48.684;9.028;2022-12-26T14:32:24;1.80;;;1.40;;
8413;SDS011;4244;48.684;9.028;2022-12-26T14:35:08;2.10;;;1.33;;
8413;SDS011;4244;48.684;9.028;2022-12-26T14:43:35;1.80;;;1.60;;
8413;SDS011;4244;48.684;9.028;2022-12-26T14:46:03;1.50;;;1.33;;
8413;SDS011;4244;48.684;9.028;2022-12-26T14:48:50;2.60;;;1.30;;
8413;SDS011;4244;48.684;9.028;2022-12-26T14:53:45;1.30;;;1.10;;
8413;SDS011;4244;48.684;9.028;2022-12-26T14:58:43;1.20;;;1.00;;
8413;SDS011;4244;48.684;9.028;2022-12-26T15:09:30;2.37;;;1.40;;
8413;SDS011;4244;48.684;9.028;2022-12-26T15:17:38;2.17;;;1.70;;
8413;SDS011;4244;48.684;9.028;2022-12-26T15:28:43;1.73;;;1.30;;
8413;SDS011;4244;48.684;9.028;2022-12-26T15:31:35;1.80;;;1.30;;
8413;SDS011;4244;48.684;9.028;2022-12-26T15:36:42;1.93;;;1.30;;
8413;SDS011;4244;48.684;9.028;2022-12-26T15:45:03;2.07;;;1.13;;
8413;SDS011;4244;48.684;9.028;2022-12-26T15:48:03;2.37;;;1.70;;
8413;SDS011;4244;48.684;9.028;2022-12-26T15:50:55;2.33;;;1.70;;
8413;SDS011;4244;48.684;9.028;2022-12-26T15:53:30;1.70;;;1.20;;
8413;SDS011;4244;48.684;9.028;2022-12-26T15:58:52;1.70;;;1.40;;
8413;SDS011;4244;48.684;9.028;2022-12-26T16:02:07;1.70;;;1.33;;
8413;SDS011;4244;48.684;9.028;2022-12-26T16:04:26;1.63;;;1.20;;
8413;SDS011;4244;48.684;9.028;2022-12-26T16:09:52;1.90;;;1.17;;
8413;SDS011;4244;48.684;9.028;2022-12-26T16:12:23;1.40;;;1.10;;
8413;SDS011;4244;48.684;9.028;2022-12-26T16:17:34;1.90;;;1.27;;
8413;SDS011;4244;48.684;9.028;2022-12-26T16:20:15;1.80;;;1.40;;
8413;SDS011;4244;48.684;9.028;2022-12-26T16:23:05;1.90;;;1.30;;
8413;SDS011;4244;48.684;9.028;2022-12-26T16:25:34;1.70;;;1.23;;
8413;SDS011;4244;48.684;9.028;2022-12-26T16:28:00;1.80;;;1.30;;
8413;SDS011;4244;48.684;9.028;2022-12-26T16:30:26;1.60;;;1.10;;
8413;SDS011;4244;48.684;9.028;2022-12-26T16:32:53;2.47;;;1.60;;
8413;SDS011;4244;48.684;9.028;2022-12-26T16:35:25;2.80;;;1.43;;
8413;SDS011;4244;48.684;9.028;2022-12-26T16:37:54;1.73;;;1.40;;
8413;SDS011;4244;48.684;9.028;2022-12-26T16:43:21;1.90;;;1.67;;
8413;SDS011;4244;48.684;9.028;2022-12-26T16:45:41;2.73;;;2.10;;
8413;SDS011;4244;48.684;9.028;2022-12-26T16:48:11;2.10;;;1.70;;
8413;SDS011;4244;48.684;9.028;2022-12-26T16:50:44;3.07;;;1.30;;
8413;SDS011;4244;48.684;9.028;2022-12-26T16:53:16;1.67;;;1.37;;
8413;SDS011;4244;48.684;9.028;2022-12-26T16:55:44;1.60;;;1.30;;
8413;SDS011;4244;48.684;9.028;2022-12-26T16:58:22;2.13;;;1.60;;
8413;SDS011;4244;48.684;9.028;2022-12-26T17:00:58;1.73;;;1.60;;
8413;SDS011;4244;48.684;9.028;2022-12-26T17:06:29;4.43;;;3.80;;
8413;SDS011;4244;48.684;9.028;2022-12-26T17:09:04;3.90;;;3.20;;
8413;SDS011;4244;48.684;9.028;2022-12-26T17:11:34;3.90;;;3.27;;
8413;SDS011;4244;48.684;9.028;2022-12-26T17:14:03;3.30;;;3.00;;
8413;SDS011;4244;48.684;9.028;2022-12-26T17:16:30;3.80;;;3.07;;
8413;SDS011;4244;48.684;9.028;2022-12-26T17:25:41;3.80;;;3.50;;
8413;SDS011;4244;48.684;9.028;2022-12-26T17:27:45;3.43;;;3.13;;
8413;SDS011;4244;48.684;9.028;2022-12-26T17:30:20;4.03;;;3.60;;
8413;SDS011;4244;48.684;9.028;2022-12-26T17:33:03;3.80;;;3.37;;
8413;SDS011;4244;48.684;9.028;2022-12-26T17:35:36;3.23;;;2.43;;
8413;SDS011;4244;48.684;9.028;2022-12-26T17:38:02;3.20;;;2.90;;
8413;SDS011;4244;48.684;9.028;2022-12-26T17:40:33;4.30;;;3.60;;
8413;SDS011;4244;48.684;9.028;2022-12-26T17:43:04;3.33;;;3.00;;
8413;SDS011;4244;48.684;9.028;2022-12-26T17:45:37;3.83;;;3.00;;
8413;SDS011;4244;48.684;9.028;2022-12-26T17:48:04;5.90;;;3.33;;
8413;SDS011;4244;48.684;9.028;2022-12-26T17:50:32;3.90;;;3.47;;
8413;SDS011;4244;48.684;9.028;2022-12-26T17:53:05;4.27;;;3.30;;
8413;SDS011;4244;48.684;9.028;2022-12-26T17:55:44;5.10;;;4.27;;
8413;SDS011;4244;48.684;9.028;2022-12-26T17:58:10;3.97;;;3.57;;
8413;SDS011;4244;48.684;9.028;2022-12-26T18:00:37;2.93;;;2.63;;
8413;SDS011;4244;48.684;9.028;2022-12-26T18:03:03;3.37;;;2.97;;
8413;SDS011;4244;48.684;9.028;2022-12-26T18:05:29;5.10;;;1.77;;
8413;SDS011;4244;48.684;9.028;2022-12-26T18:07:55;2.13;;;1.50;;
8413;SDS011;4244;48.684;9.028;2022-12-26T18:10:22;1.80;;;1.50;;
8413;SDS011;4244;48.684;9.028;2022-12-26T18:12:50;3.23;;;1.57;;
8413;SDS011;4244;48.684;9.028;2022-12-26T18:15:16;1.30;;;1.10;;
8413;SDS011;4244;48.684;9.028;2022-12-26T18:17:43;2.50;;;1.23;;
8413;SDS011;4244;48.684;9.028;2022-12-26T18:20:19;2.67;;;1.17;;
8413;SDS011;4244;48.684;9.028;2022-12-26T18:22:50;1.77;;;0.90;;
8413;SDS011;4244;48.684;9.028;2022-12-26T18:25:18;2.03;;;1.00;;
8413;SDS011;4244;48.684;9.028;2022-12-26T18:27:45;3.73;;;1.10;;
8413;SDS011;4244;48.684;9.028;2022-12-26T18:30:15;1.60;;;1.10;;
8413;SDS011;4244;48.684;9.028;2022-12-26T18:32:48;1.33;;;0.83;;
8413;SDS011;4244;48.684;9.028;2022-12-26T18:35:16;1.83;;;1.20;;
8413;SDS011;4244;48.684;9.028;2022-12-26T18:37:43;1.03;;;0.67;;
8413;SDS011;4244;48.684;9.028;2022-12-26T18:40:23;1.20;;;0.60;;
8413;SDS011;4244;48.684;9.028;2022-12-26T18:42:53;4.53;;;0.50;;
8413;SDS011;4244;48.684;9.028;2022-12-26T18:45:19;1.00;;;0.60;;
8413;SDS011;4244;48.684;9.028;2022-12-26T18:47:45;1.27;;;0.80;;
8413;SDS011;4244;48.684;9.028;2022-12-26T18:50:11;1.40;;;0.73;;
8413;SDS011;4244;48.684;9.028;2022-12-26T18:52:39;1.40;;;0.83;;
8413;SDS011;4244;48.684;9.028;2022-12-26T18:55:04;1.70;;;0.60;;
8413;SDS011;4244;48.684;9.028;2022-12-26T18:57:30;1.33;;;0.53;;
8413;SDS011;4244;48.684;9.028;2022-12-26T18:59:56;0.90;;;0.50;;
8413;SDS011;4244;48.684;9.028;2022-12-26T19:02:21;1.33;;;0.60;;
8413;SDS011;4244;48.684;9.028;2022-12-26T19:04:47;1.33;;;0.53;;
8413;SDS011;4244;48.684;9.028;2022-12-26T19:07:13;1.00;;;0.47;;
8413;SDS011;4244;48.684;9.028;2022-12-26T19:09:41;1.00;;;0.47;;
8413;SDS011;4244;48.684;9.028;2022-12-26T19:12:08;1.53;;;0.90;;
8413;SDS011;4244;48.684;9.028;2022-12-26T19:14:34;1.53;;;0.83;;
8413;SDS011;4244;48.684;9.028;2022-12-26T19:16:59;1.37;;;0.70;;
8413;SDS011;4244;48.684;9.028;2022-12-26T19:19:25;1.00;;;0.63;;
8413;SDS011;4244;48.684;9.028;2022-12-26T19:21:53;1.73;;;0.77;;
8413;SDS011;4244;48.684;9.028;2022-12-26T19:24:20;1.87;;;1.67;;
8413;SDS011;4244;48.684;9.028;2022-12-26T19:26:45;1.73;;;0.80;;